createdAt,value
2019-02-12T05:00:59.454Z,0.00
2019-02-12T05:01:58.496Z,0.00
2019-02-12T05:03:51.153Z,0.00
2019-02-12T05:04:51.031Z,0.00
2019-02-12T05:06:43.699Z,0.00
2019-02-12T05:07:43.599Z,0.00
2019-02-12T05:09:36.255Z,0.00
2019-02-12T05:10:36.115Z,0.00
2019-02-12T05:12:28.773Z,0.00
2019-02-12T05:13:28.657Z,0.00
2019-02-12T05:15:21.335Z,0.00
2019-02-12T05:16:21.204Z,0.00
2019-02-12T05:18:13.858Z,0.00
2019-02-12T05:19:13.757Z,0.00
2019-02-12T05:21:06.432Z,0.00
2019-02-12T05:22:06.298Z,0.00
2019-02-12T05:23:59.189Z,0.00
2019-02-12T05:24:58.854Z,0.00
2019-02-12T05:26:51.499Z,0.00
2019-02-12T05:27:51.390Z,0.00
2019-02-12T05:29:44.065Z,0.00
2019-02-12T05:30:43.929Z,0.00
2019-02-12T05:32:36.589Z,0.00
2019-02-12T05:33:36.478Z,0.00
2019-02-12T05:35:29.184Z,0.00
2019-02-12T05:36:29.037Z,0.00
2019-02-12T05:38:21.714Z,0.00
2019-02-12T05:39:21.581Z,0.00
2019-02-12T05:41:14.243Z,0.00
2019-02-12T05:42:14.124Z,0.00
2019-02-12T05:44:06.810Z,0.00
2019-02-12T05:45:06.673Z,0.00
2019-02-12T05:46:59.341Z,0.00
2019-02-12T05:47:59.220Z,0.00
2019-02-12T05:49:51.894Z,0.00
2019-02-12T05:50:51.860Z,0.00
2019-02-12T05:52:53.677Z,0.00
2019-02-12T05:53:44.304Z,0.00
2019-02-12T05:55:36.979Z,0.00
2019-02-12T05:56:36.849Z,0.00
2019-02-12T05:58:29.533Z,0.00
2019-02-12T05:59:29.407Z,0.00
2019-02-12T06:01:22.057Z,0.00
2019-02-12T06:02:21.941Z,0.00
2019-02-12T06:04:15.612Z,0.00
2019-02-12T06:05:16.563Z,0.00
2019-02-12T06:07:08.151Z,0.00
2019-02-12T06:08:08.041Z,0.00
2019-02-12T06:10:00.733Z,0.00
2019-02-12T06:11:00.581Z,0.00
2019-02-12T06:12:53.270Z,0.00
2019-02-12T06:13:53.129Z,0.00
2019-02-12T06:15:45.790Z,0.00
2019-02-12T06:16:45.690Z,0.00
2019-02-12T06:18:38.442Z,4.00
2019-02-12T06:19:38.319Z,4.00
2019-02-12T06:21:30.973Z,4.00
2019-02-12T06:22:30.857Z,4.00
2019-02-12T06:24:23.531Z,4.00
2019-02-12T06:25:23.398Z,4.00
2019-02-12T06:27:16.074Z,4.00
2019-02-12T06:28:15.945Z,8.00
2019-02-12T06:30:08.606Z,8.00
2019-02-12T06:31:08.485Z,12.00
2019-02-12T06:33:07.297Z,16.00
2019-02-12T06:34:01.036Z,16.00
2019-02-12T06:35:53.704Z,20.00
2019-02-12T06:36:53.590Z,24.00
2019-02-12T06:38:46.258Z,32.00
2019-02-12T06:39:46.133Z,40.00
2019-02-12T06:41:38.803Z,52.00
2019-02-12T06:42:38.668Z,60.00
2019-02-12T06:44:31.343Z,72.00
2019-02-12T06:45:31.220Z,84.00
2019-02-12T06:47:23.889Z,104.00
2019-02-12T06:48:23.757Z,116.00
2019-02-12T06:50:16.411Z,136.00
2019-02-12T06:51:16.307Z,148.00
2019-02-12T06:53:12.627Z,176.00
2019-02-12T06:54:08.842Z,192.00
2019-02-12T06:56:01.519Z,224.00
2019-02-12T06:57:01.386Z,244.00
2019-02-12T06:58:54.046Z,280.00
2019-02-12T06:59:53.947Z,308.00
2019-02-12T07:01:46.617Z,348.00
2019-02-12T07:02:46.492Z,372.00
2019-02-12T07:04:39.146Z,420.00
2019-02-12T07:05:39.032Z,452.00
2019-02-12T07:07:31.709Z,524.00
2019-02-12T07:08:31.587Z,568.00
2019-02-12T07:10:24.225Z,668.00
2019-02-12T07:11:24.114Z,732.00
2019-02-12T07:13:16.794Z,848.00
2019-02-12T07:14:16.659Z,900.00
2019-02-12T07:16:09.332Z,1016.00
2019-02-12T07:17:09.207Z,1092.00
2019-02-12T07:19:01.861Z,1228.00
2019-02-12T07:20:01.750Z,1288.00
2019-02-12T07:21:54.430Z,1352.00
2019-02-12T07:22:54.298Z,1328.00
2019-02-12T07:24:46.951Z,1268.00
2019-02-12T07:25:46.854Z,1264.00
2019-02-12T07:27:39.510Z,1280.00
2019-02-12T07:28:39.378Z,1336.00
2019-02-12T07:30:32.126Z,1392.00
2019-02-12T07:31:31.936Z,1364.00
2019-02-12T07:33:24.617Z,1296.00
2019-02-12T07:34:24.492Z,1320.00
2019-02-12T07:36:17.154Z,1400.00
2019-02-12T07:37:17.042Z,1416.00
2019-02-12T07:39:09.691Z,1352.00
2019-02-12T07:40:09.576Z,1372.00
2019-02-12T07:42:02.268Z,1496.00
2019-02-12T07:43:02.141Z,1588.00
2019-02-12T07:44:54.787Z,1852.00
2019-02-12T07:45:54.670Z,1976.00
2019-02-12T07:47:47.352Z,2240.00
2019-02-12T07:48:47.222Z,2376.00
2019-02-12T07:50:39.894Z,2680.00
2019-02-12T07:51:39.763Z,2852.00
2019-02-12T07:53:32.423Z,3248.00
2019-02-12T07:54:32.310Z,3500.00
2019-02-12T07:56:24.996Z,3900.00
2019-02-12T07:57:24.854Z,4080.00
2019-02-12T07:59:17.513Z,4392.00
2019-02-12T08:00:17.403Z,4500.00
2019-02-12T08:02:10.083Z,4620.00
2019-02-12T08:03:09.946Z,4596.00
2019-02-12T08:05:02.619Z,4640.00
2019-02-12T08:06:02.505Z,4572.00
2019-02-12T08:07:55.186Z,4396.00
2019-02-12T08:08:55.050Z,4356.00
2019-02-12T08:10:47.736Z,4296.00
2019-02-12T08:11:47.599Z,4288.00
2019-02-12T08:13:40.257Z,4172.00
2019-02-12T08:14:40.149Z,4068.00
2019-02-12T08:16:32.828Z,3556.00
2019-02-12T08:17:32.696Z,3304.00
2019-02-12T08:19:25.356Z,2896.00
2019-02-12T08:20:25.249Z,2776.00
2019-02-12T08:22:17.922Z,2696.00
2019-02-12T08:23:17.790Z,2552.00
2019-02-12T08:25:10.460Z,2404.00
2019-02-12T08:26:10.335Z,2440.00
2019-02-12T08:28:03.021Z,2624.00
2019-02-12T08:29:02.891Z,2780.00
2019-02-12T08:30:55.544Z,3168.00
2019-02-12T08:31:55.431Z,3312.00
2019-02-12T08:33:48.117Z,3608.00
2019-02-12T08:34:47.995Z,3748.00
2019-02-12T08:36:40.669Z,3912.00
2019-02-12T08:37:40.547Z,3836.00
2019-02-12T08:39:33.201Z,3896.00
2019-02-12T08:40:33.089Z,3976.00
2019-02-12T08:42:25.787Z,4164.00
2019-02-12T08:43:25.655Z,4152.00
2019-02-12T08:45:18.317Z,4120.00
2019-02-12T08:46:18.205Z,4272.00
2019-02-12T08:48:10.894Z,4388.00
2019-02-12T08:49:10.757Z,4304.00
2019-02-12T08:51:03.422Z,4420.00
2019-02-12T08:52:03.300Z,4608.00
2019-02-12T08:53:55.982Z,5120.00
2019-02-12T08:54:55.869Z,5344.00
2019-02-12T08:56:48.528Z,5772.00
2019-02-12T08:57:48.394Z,5848.00
2019-02-12T08:59:41.054Z,5872.00
2019-02-12T09:00:40.945Z,5712.00
2019-02-12T09:02:33.622Z,5124.00
2019-02-12T09:03:33.491Z,4820.00
2019-02-12T09:05:26.158Z,4240.00
2019-02-12T09:06:26.044Z,3952.00
2019-02-12T09:08:18.726Z,3624.00
2019-02-12T09:09:18.590Z,3528.00
2019-02-12T09:11:11.257Z,3648.00
2019-02-12T09:12:11.146Z,3752.00
2019-02-12T09:14:03.819Z,3644.00
2019-02-12T09:15:03.689Z,3516.00
2019-02-12T09:16:56.385Z,3720.00
2019-02-12T09:17:56.242Z,3872.00
2019-02-12T09:19:48.897Z,4320.00
2019-02-12T09:20:48.785Z,4604.00
2019-02-12T09:22:41.467Z,4888.00
2019-02-12T09:23:41.350Z,5044.00
2019-02-12T09:25:34.005Z,5248.00
2019-02-12T09:26:33.892Z,5364.00
2019-02-12T09:28:26.573Z,5664.00
2019-02-12T09:29:26.437Z,5776.00
2019-02-12T09:31:19.115Z,6200.00
2019-02-12T09:32:19.013Z,6456.00
2019-02-12T09:34:11.688Z,6652.00
2019-02-12T09:35:11.555Z,6512.00
2019-02-12T09:37:04.235Z,6384.00
2019-02-12T09:38:04.131Z,6068.00
2019-02-12T09:39:56.767Z,5668.00
2019-02-12T09:40:56.653Z,5712.00
2019-02-12T09:42:49.333Z,5596.00
2019-02-12T09:43:49.200Z,5544.00
2019-02-12T09:45:41.871Z,5676.00
2019-02-12T09:46:41.750Z,5652.00
2019-02-12T09:48:34.436Z,5976.00
2019-02-12T09:49:34.306Z,6352.00
2019-02-12T09:51:26.988Z,6636.00
2019-02-12T09:52:26.853Z,6188.00
2019-02-12T09:54:19.525Z,4864.00
2019-02-12T09:55:19.416Z,4156.00
2019-02-12T09:57:12.100Z,3424.00
2019-02-12T09:58:11.970Z,3284.00
2019-02-12T10:00:04.637Z,3396.00
2019-02-12T10:01:04.538Z,3132.00
2019-02-12T10:02:57.209Z,2692.00
2019-02-12T10:03:57.067Z,2724.00
2019-02-12T10:05:49.736Z,2368.00
2019-02-12T10:06:49.628Z,2080.00
2019-02-12T10:08:42.327Z,2012.00
2019-02-12T10:09:42.176Z,2172.00
2019-02-12T10:11:34.866Z,2376.00
2019-02-12T10:12:34.733Z,2512.00
2019-02-12T10:14:27.414Z,3480.00
2019-02-12T10:15:27.299Z,3748.00
2019-02-12T10:17:19.987Z,4604.00
2019-02-12T10:18:19.851Z,4708.00
2019-02-12T10:20:12.524Z,4328.00
2019-02-12T10:21:12.408Z,4036.00
2019-02-12T10:23:06.497Z,3304.00
2019-02-12T10:24:04.962Z,3304.00
2019-02-12T10:25:57.648Z,3512.00
2019-02-12T10:26:57.529Z,3712.00
2019-02-12T10:28:50.229Z,4248.00
2019-02-12T10:29:50.079Z,4792.00
2019-02-12T10:31:42.756Z,5304.00
2019-02-12T10:32:42.635Z,5060.00
2019-02-12T10:34:35.305Z,3692.00
2019-02-12T10:35:35.183Z,2972.00
2019-02-12T10:37:27.867Z,2432.00
2019-02-12T10:38:27.728Z,2992.00
2019-02-12T10:40:20.398Z,4388.00
2019-02-12T10:41:20.282Z,4912.00
2019-02-12T10:43:12.963Z,5048.00
2019-02-12T10:44:12.833Z,5460.00
2019-02-12T10:46:05.502Z,6152.00
2019-02-12T10:47:05.389Z,6428.00
2019-02-12T10:48:58.076Z,6348.00
2019-02-12T10:49:59.599Z,6208.00
2019-02-12T10:51:51.042Z,6480.00
2019-02-12T10:52:50.501Z,6864.00
2019-02-12T10:54:43.160Z,6972.00
2019-02-12T10:55:43.049Z,7044.00
2019-02-12T10:57:35.733Z,7460.00
2019-02-12T10:58:35.602Z,7852.00
2019-02-12T11:00:28.280Z,7924.00
2019-02-12T11:01:28.150Z,7964.00
2019-02-12T11:03:20.834Z,8740.00
2019-02-12T11:04:21.644Z,8696.00
2019-02-12T11:06:13.375Z,8052.00
2019-02-12T11:07:13.266Z,7412.00
2019-02-12T11:09:05.945Z,7556.00
2019-02-12T11:10:05.822Z,7672.00
2019-02-12T11:11:58.501Z,7116.00
2019-02-12T11:12:58.370Z,7360.00
2019-02-12T11:14:51.038Z,8144.00
2019-02-12T11:15:50.936Z,8444.00
2019-02-12T11:17:43.608Z,9160.00
2019-02-12T11:18:43.480Z,9464.00
2019-02-12T11:20:36.138Z,9540.00
2019-02-12T11:21:36.031Z,9308.00
2019-02-12T11:23:28.718Z,8376.00
2019-02-12T11:24:35.492Z,8096.00
2019-02-12T11:26:21.252Z,8176.00
2019-02-12T11:27:21.137Z,7900.00
2019-02-12T11:29:13.841Z,7184.00
2019-02-12T11:30:13.695Z,7140.00
2019-02-12T11:32:06.389Z,6888.00
2019-02-12T11:33:06.254Z,7080.00
2019-02-12T11:34:58.932Z,7412.00
2019-02-12T11:35:58.812Z,7244.00
2019-02-12T11:37:51.500Z,6712.00
2019-02-12T11:38:51.380Z,6668.00
2019-02-12T11:40:44.048Z,5660.00
2019-02-12T11:41:43.947Z,5808.00
2019-02-12T11:43:36.614Z,5568.00
2019-02-12T11:44:36.481Z,6064.00
2019-02-12T11:46:29.153Z,5748.00
2019-02-12T11:47:29.042Z,5048.00
2019-02-12T11:49:21.729Z,5712.00
2019-02-12T11:50:21.599Z,5072.00
2019-02-12T11:52:14.262Z,4492.00
2019-02-12T11:53:14.154Z,4288.00
2019-02-12T11:55:06.840Z,4720.00
2019-02-12T11:56:06.710Z,4856.00
2019-02-12T11:57:59.390Z,5552.00
2019-02-12T11:58:59.282Z,5576.00
2019-02-12T12:00:51.936Z,6492.00
2019-02-12T12:01:51.823Z,6300.00
2019-02-12T12:03:44.499Z,6520.00
2019-02-12T12:04:44.374Z,6472.00
2019-02-12T12:06:37.038Z,6132.00
2019-02-12T12:07:36.928Z,6128.00
2019-02-12T12:09:29.769Z,6048.00
2019-02-12T12:10:29.480Z,6028.00
2019-02-12T12:12:22.153Z,6236.00
2019-02-12T12:13:22.043Z,6592.00
2019-02-12T12:15:14.739Z,6164.00
2019-02-12T12:16:14.598Z,5840.00
2019-02-12T12:18:07.309Z,5936.00
2019-02-12T12:19:07.142Z,6044.00
2019-02-12T12:20:59.826Z,5928.00
2019-02-12T12:21:59.718Z,5852.00
2019-02-12T12:23:52.404Z,5876.00
2019-02-12T12:24:52.271Z,6044.00
2019-02-12T12:26:44.959Z,5948.00
2019-02-12T12:27:44.839Z,5996.00
2019-02-12T12:29:37.511Z,6128.00
2019-02-12T12:30:37.382Z,5960.00
2019-02-12T12:32:30.045Z,6032.00
2019-02-12T12:33:29.939Z,6296.00
2019-02-12T12:35:22.619Z,6116.00
2019-02-12T12:36:22.497Z,6036.00
2019-02-12T12:38:15.177Z,6164.00
2019-02-12T12:39:15.047Z,5668.00
2019-02-12T12:41:07.718Z,5268.00
2019-02-12T12:42:07.609Z,5152.00
2019-02-12T12:44:00.302Z,4996.00
2019-02-12T12:45:00.216Z,4672.00
2019-02-12T12:46:52.838Z,4668.00
2019-02-12T12:47:52.729Z,5300.00
2019-02-12T12:49:45.411Z,4952.00
2019-02-12T12:50:45.305Z,4600.00
2019-02-12T12:52:37.948Z,4036.00
2019-02-12T12:53:37.840Z,3896.00
2019-02-12T12:55:30.519Z,3920.00
2019-02-12T12:56:30.387Z,3868.00
2019-02-12T12:58:23.051Z,3868.00
2019-02-12T12:59:22.943Z,3800.00
2019-02-12T13:01:15.638Z,4220.00
2019-02-12T13:02:15.502Z,4692.00
2019-02-12T13:04:08.180Z,5168.00
2019-02-12T13:05:08.070Z,4664.00
2019-02-12T13:07:00.724Z,3816.00
2019-02-12T13:08:00.607Z,4208.00
2019-02-12T13:09:53.292Z,3816.00
2019-02-12T13:10:53.156Z,3204.00
2019-02-12T13:12:45.824Z,2544.00
2019-02-12T13:13:45.712Z,2908.00
2019-02-12T13:15:38.416Z,3612.00
2019-02-12T13:16:38.291Z,3344.00
2019-02-12T13:18:30.958Z,4808.00
2019-02-12T13:19:30.846Z,5756.00
2019-02-12T13:21:23.534Z,6100.00
2019-02-12T13:22:23.404Z,5848.00
2019-02-12T13:24:16.094Z,5788.00
2019-02-12T13:25:15.961Z,6152.00
2019-02-12T13:27:08.631Z,5268.00
2019-02-12T13:28:08.522Z,5716.00
2019-02-12T13:30:01.245Z,6620.00
2019-02-12T13:31:01.073Z,6936.00
2019-02-12T13:32:53.751Z,6552.00
2019-02-12T13:33:53.633Z,6428.00
2019-02-12T13:35:46.316Z,5788.00
2019-02-12T13:36:46.205Z,5736.00
2019-02-12T13:38:38.875Z,6036.00
2019-02-12T13:39:38.746Z,5904.00
2019-02-12T13:41:31.408Z,5988.00
2019-02-12T13:42:31.301Z,5996.00
2019-02-12T13:44:23.981Z,5896.00
2019-02-12T13:45:23.853Z,5920.00
2019-02-12T13:47:16.520Z,5780.00
2019-02-12T13:48:16.407Z,5700.00
2019-02-12T13:50:09.090Z,5392.00
2019-02-12T13:51:08.959Z,5248.00
2019-02-12T13:53:01.631Z,5096.00
2019-02-12T13:54:01.514Z,5076.00
2019-02-12T13:55:54.250Z,5160.00
2019-02-12T13:56:54.086Z,5172.00
2019-02-12T13:58:46.746Z,5188.00
2019-02-12T13:59:46.640Z,5164.00
2019-02-12T14:01:39.323Z,5260.00
2019-02-12T14:02:39.201Z,5228.00
2019-02-12T14:04:31.890Z,5168.00
2019-02-12T14:05:31.814Z,5164.00
2019-02-12T14:07:24.428Z,5044.00
2019-02-12T14:08:24.319Z,4956.00
2019-02-12T14:10:16.992Z,4600.00
2019-02-12T14:11:16.871Z,4416.00
2019-02-12T14:13:09.531Z,4400.00
2019-02-12T14:14:09.426Z,4460.00
2019-02-12T14:16:02.101Z,4576.00
2019-02-12T14:17:01.977Z,4592.00
2019-02-12T14:18:54.643Z,4516.00
2019-02-12T14:19:54.533Z,4420.00
2019-02-12T14:21:47.232Z,4300.00
2019-02-12T14:22:47.106Z,4232.00
2019-02-12T14:24:39.806Z,4100.00
2019-02-12T14:25:39.696Z,4044.00
2019-02-12T14:27:32.383Z,3936.00
2019-02-12T14:28:32.261Z,3868.00
2019-02-12T14:30:24.936Z,3824.00
2019-02-12T14:31:24.813Z,3660.00
2019-02-12T14:33:17.481Z,3520.00
2019-02-12T14:34:17.366Z,3484.00
2019-02-12T14:36:10.057Z,3448.00
2019-02-12T14:37:09.921Z,3464.00
2019-02-12T14:39:02.591Z,3516.00
2019-02-12T14:40:02.476Z,3516.00
2019-02-12T14:41:55.178Z,3488.00
2019-02-12T14:42:55.037Z,3476.00
2019-02-12T14:44:47.703Z,3400.00
2019-02-12T14:45:47.597Z,3364.00
2019-02-12T14:47:40.278Z,3328.00
2019-02-12T14:48:40.151Z,3344.00
2019-02-12T14:50:32.835Z,3340.00
2019-02-12T14:51:32.711Z,3332.00
2019-02-12T14:53:25.384Z,3296.00
2019-02-12T14:54:25.249Z,3268.00
2019-02-12T14:56:17.977Z,3312.00
2019-02-12T14:57:17.811Z,3400.00
2019-02-12T14:59:10.519Z,3596.00
2019-02-12T15:00:10.374Z,3672.00
2019-02-12T15:02:03.049Z,3680.00
2019-02-12T15:03:02.927Z,3732.00
2019-02-12T15:05:00.598Z,3652.00
2019-02-12T15:05:55.474Z,3648.00
2019-02-12T15:07:48.165Z,3844.00
2019-02-12T15:08:48.030Z,3804.00
2019-02-12T15:10:40.702Z,3560.00
2019-02-12T15:11:40.583Z,3428.00
2019-02-12T15:13:33.262Z,3200.00
2019-02-12T15:14:33.136Z,3072.00
2019-02-12T15:16:25.825Z,2852.00
2019-02-12T15:17:25.695Z,2760.00
2019-02-12T15:19:18.361Z,2624.00
2019-02-12T15:20:18.250Z,2580.00
2019-02-12T15:22:10.929Z,2448.00
2019-02-12T15:23:10.799Z,2360.00
2019-02-12T15:25:03.476Z,2200.00
2019-02-12T15:26:03.361Z,2100.00
2019-02-12T15:27:56.047Z,1936.00
2019-02-12T15:28:55.923Z,1892.00
2019-02-12T15:30:48.588Z,1852.00
2019-02-12T15:31:48.475Z,1832.00
2019-02-12T15:33:41.151Z,1796.00
2019-02-12T15:34:41.024Z,1784.00
2019-02-12T15:36:33.688Z,1768.00
2019-02-12T15:37:33.582Z,1756.00
2019-02-12T15:39:26.256Z,1728.00
2019-02-12T15:40:26.134Z,1716.00
2019-02-12T15:42:18.805Z,1668.00
2019-02-12T15:43:18.733Z,1632.00
2019-02-12T15:45:11.342Z,1556.00
2019-02-12T15:46:11.230Z,1512.00
2019-02-12T15:48:03.915Z,1412.00
2019-02-12T15:49:03.786Z,1348.00
2019-02-12T15:50:56.444Z,1248.00
2019-02-12T15:51:56.336Z,1204.00
2019-02-12T15:53:49.010Z,1120.00
2019-02-12T15:54:48.888Z,1068.00
2019-02-12T15:56:41.549Z,984.00
2019-02-12T15:57:43.716Z,944.00
2019-02-12T15:59:34.127Z,876.00
2019-02-12T16:00:33.994Z,832.00
2019-02-12T16:02:26.674Z,756.00
2019-02-12T16:03:26.548Z,728.00
2019-02-12T16:05:19.226Z,692.00
2019-02-12T16:06:19.657Z,676.00
2019-02-12T16:08:11.779Z,636.00
2019-02-12T16:09:11.652Z,612.00
2019-02-12T16:11:04.315Z,564.00
2019-02-12T16:12:06.022Z,544.00
2019-02-12T16:13:58.666Z,508.00
2019-02-12T16:14:57.337Z,492.00
2019-02-12T16:16:50.158Z,460.00
2019-02-12T16:17:49.310Z,444.00
2019-02-12T16:19:41.989Z,408.00
2019-02-12T16:20:41.865Z,392.00
2019-02-12T16:22:34.519Z,364.00
2019-02-12T16:23:34.411Z,344.00
2019-02-12T16:25:27.089Z,308.00
2019-02-12T16:26:26.987Z,288.00
2019-02-12T16:28:19.642Z,256.00
2019-02-12T16:29:19.513Z,240.00
2019-02-12T16:31:12.189Z,216.00
2019-02-12T16:32:12.065Z,208.00
2019-02-12T16:34:04.750Z,180.00
2019-02-12T16:35:04.615Z,164.00
2019-02-12T16:36:57.280Z,168.00
2019-02-12T16:37:57.172Z,156.00
2019-02-12T16:39:49.849Z,136.00
2019-02-12T16:40:49.720Z,124.00
2019-02-12T16:42:42.388Z,108.00
2019-02-12T16:43:42.278Z,96.00
2019-02-12T16:45:34.961Z,84.00
2019-02-12T16:46:34.828Z,80.00
2019-02-12T16:48:27.504Z,64.00
2019-02-12T16:49:27.387Z,60.00
2019-02-12T16:51:20.056Z,48.00
2019-02-12T16:52:21.129Z,44.00
2019-02-12T16:54:12.608Z,40.00
2019-02-12T16:55:12.477Z,40.00
2019-02-12T16:57:05.139Z,36.00
2019-02-12T16:58:05.021Z,32.00
2019-02-12T16:59:59.332Z,28.00
2019-02-12T17:00:57.571Z,32.00
2019-02-12T17:02:50.266Z,28.00
2019-02-12T17:03:50.150Z,28.00
2019-02-12T17:05:42.828Z,28.00
2019-02-12T17:06:42.699Z,28.00
2019-02-12T17:08:35.366Z,24.00
2019-02-12T17:09:35.237Z,24.00
2019-02-12T17:11:27.959Z,24.00
2019-02-12T17:12:27.810Z,28.00
2019-02-12T17:14:20.497Z,28.00
2019-02-12T17:15:20.370Z,24.00
2019-02-12T17:17:13.070Z,28.00
2019-02-12T17:18:12.923Z,24.00
2019-02-12T17:20:05.602Z,24.00
2019-02-12T17:21:05.478Z,24.00
2019-02-12T17:22:58.142Z,24.00
2019-02-12T17:23:58.030Z,28.00
2019-02-12T17:25:50.714Z,28.00
2019-02-12T17:26:50.584Z,24.00
2019-02-12T17:28:43.245Z,24.00
2019-02-12T17:29:43.155Z,28.00
2019-02-12T17:31:35.823Z,24.00
2019-02-12T17:32:35.693Z,24.00
2019-02-12T17:34:28.359Z,24.00
2019-02-12T17:35:28.249Z,24.00
2019-02-12T17:37:20.923Z,24.00
2019-02-12T17:38:20.789Z,24.00
2019-02-12T17:40:13.472Z,24.00
2019-02-12T17:41:13.341Z,24.00
2019-02-12T17:43:06.005Z,24.00
2019-02-12T17:44:05.897Z,24.00
2019-02-12T17:45:58.579Z,24.00
2019-02-12T17:46:58.451Z,24.00
2019-02-12T17:48:51.130Z,24.00
2019-02-12T17:49:51.037Z,24.00
2019-02-12T17:51:43.709Z,24.00
2019-02-12T17:52:43.608Z,24.00
2019-02-12T17:54:36.241Z,24.00
2019-02-12T17:55:36.130Z,24.00
2019-02-12T17:57:28.809Z,24.00
2019-02-12T17:58:28.679Z,24.00
2019-02-12T18:00:21.371Z,24.00
2019-02-12T18:01:21.240Z,24.00
2019-02-12T18:03:13.900Z,24.00
2019-02-12T18:04:13.789Z,24.00
2019-02-12T18:06:06.451Z,24.00
2019-02-12T18:07:06.324Z,24.00
2019-02-12T18:08:58.991Z,24.00
2019-02-12T18:09:58.885Z,24.00
2019-02-12T18:11:51.551Z,24.00
2019-02-12T18:12:51.424Z,24.00
2019-02-12T18:14:44.093Z,24.00
2019-02-12T18:15:43.973Z,24.00
2019-02-12T18:17:36.668Z,24.00
2019-02-12T18:18:36.530Z,24.00
2019-02-12T18:20:29.213Z,24.00
2019-02-12T18:21:29.092Z,24.00
2019-02-12T18:23:21.776Z,24.00
2019-02-12T18:24:21.640Z,24.00
2019-02-12T18:26:14.351Z,24.00
2019-02-12T18:27:14.214Z,24.00
2019-02-12T18:29:06.874Z,24.00
2019-02-12T18:30:06.749Z,24.00
2019-02-12T18:31:59.426Z,24.00
2019-02-12T18:32:59.296Z,24.00
2019-02-12T18:34:51.971Z,24.00
2019-02-12T18:35:51.920Z,24.00
2019-02-12T18:37:44.534Z,24.00
2019-02-12T18:38:44.406Z,24.00
2019-02-12T18:40:37.090Z,24.00
2019-02-12T18:41:36.960Z,24.00
2019-02-12T18:43:29.643Z,24.00
2019-02-12T18:44:29.510Z,24.00
2019-02-12T18:46:22.169Z,24.00
2019-02-12T18:47:22.058Z,24.00
2019-02-12T18:49:14.728Z,24.00
2019-02-12T18:50:14.605Z,24.00
2019-02-12T18:52:07.291Z,24.00
2019-02-12T18:53:07.156Z,24.00
2019-02-12T18:54:59.823Z,24.00
2019-02-12T18:55:59.711Z,24.00
2019-02-12T18:57:52.395Z,24.00
2019-02-12T18:58:52.262Z,24.00
2019-02-12T19:00:44.941Z,24.00
2019-02-12T19:01:44.829Z,24.00
2019-02-12T19:03:37.516Z,24.00
2019-02-12T19:04:37.376Z,24.00
2019-02-12T19:06:30.034Z,24.00
2019-02-12T19:07:29.923Z,24.00
2019-02-12T19:09:22.628Z,24.00
2019-02-12T19:10:22.475Z,24.00
2019-02-12T19:12:15.151Z,24.00
2019-02-12T19:13:15.017Z,24.00
2019-02-12T19:15:07.709Z,24.00
2019-02-12T19:16:07.570Z,24.00
2019-02-12T19:18:00.251Z,24.00
2019-02-12T19:19:00.116Z,24.00
2019-02-12T19:20:52.815Z,24.00
2019-02-12T19:21:52.685Z,24.00
2019-02-12T19:23:45.366Z,24.00
2019-02-12T19:24:45.243Z,24.00
2019-02-12T19:26:37.929Z,24.00
2019-02-12T19:27:37.804Z,24.00
2019-02-12T19:29:30.481Z,24.00
2019-02-12T19:30:30.350Z,24.00
2019-02-12T19:32:23.018Z,24.00
2019-02-12T19:33:22.926Z,24.00
2019-02-12T19:35:15.584Z,24.00
2019-02-12T19:36:15.443Z,24.00
2019-02-12T19:38:08.122Z,24.00
2019-02-12T19:39:07.993Z,24.00
2019-02-12T19:41:00.671Z,24.00
2019-02-12T19:42:00.544Z,24.00
2019-02-12T19:43:53.208Z,24.00
2019-02-12T19:44:53.105Z,24.00
2019-02-12T19:46:45.771Z,24.00
2019-02-12T19:47:45.634Z,24.00
2019-02-12T19:49:38.300Z,24.00
2019-02-12T19:50:38.185Z,24.00
2019-02-12T19:52:30.986Z,24.00
2019-02-12T19:53:30.739Z,24.00
2019-02-12T19:55:23.420Z,24.00
2019-02-12T19:56:23.540Z,24.00
2019-02-12T19:58:16.068Z,24.00
2019-02-12T19:59:15.917Z,24.00
2019-02-12T20:01:08.612Z,24.00
2019-02-12T20:02:08.872Z,24.00
2019-02-12T20:04:01.159Z,24.00
2019-02-12T20:05:01.048Z,24.00
2019-02-12T20:06:53.724Z,24.00
2019-02-12T20:07:53.594Z,24.00
2019-02-12T20:09:46.286Z,24.00
2019-02-12T20:10:46.146Z,24.00
2019-02-12T20:12:38.803Z,24.00
2019-02-12T20:13:38.689Z,24.00
2019-02-12T20:15:31.367Z,24.00
2019-02-12T20:16:31.241Z,24.00
2019-02-12T20:18:23.905Z,24.00
2019-02-12T20:19:23.789Z,24.00
2019-02-12T20:21:16.465Z,24.00
2019-02-12T20:22:16.339Z,24.00
2019-02-12T20:24:09.168Z,24.00
2019-02-12T20:25:08.939Z,24.00
2019-02-12T20:27:06.678Z,24.00
2019-02-12T20:28:01.489Z,24.00
2019-02-12T20:29:54.150Z,24.00
2019-02-12T20:30:54.037Z,24.00
2019-02-12T20:32:46.738Z,24.00
2019-02-12T20:33:46.609Z,24.00
2019-02-12T20:35:39.269Z,24.00
2019-02-12T20:36:39.181Z,24.00
2019-02-12T20:38:31.835Z,24.00
2019-02-12T20:39:31.698Z,24.00
2019-02-12T20:41:24.380Z,24.00
2019-02-12T20:42:24.252Z,24.00
2019-02-12T20:44:16.908Z,24.00
2019-02-12T20:45:16.795Z,24.00
2019-02-12T20:47:09.475Z,24.00
2019-02-12T20:48:09.349Z,24.00
2019-02-12T20:50:02.036Z,24.00
2019-02-12T20:51:01.916Z,24.00
2019-02-12T20:52:54.645Z,24.00
2019-02-12T20:53:54.471Z,24.00
2019-02-12T20:55:47.138Z,24.00
2019-02-12T20:56:47.022Z,24.00
2019-02-12T20:58:39.705Z,24.00
2019-02-12T20:59:39.566Z,24.00
2019-02-12T21:01:32.231Z,24.00
2019-02-12T21:02:32.112Z,24.00
2019-02-12T21:04:24.814Z,24.00
2019-02-12T21:05:24.677Z,24.00
2019-02-12T21:07:17.354Z,24.00
2019-02-12T21:08:17.211Z,24.00
2019-02-12T21:10:09.877Z,24.00
2019-02-12T21:11:09.765Z,24.00
2019-02-12T21:13:02.456Z,24.00
2019-02-12T21:14:02.321Z,24.00
2019-02-12T21:15:55.303Z,24.00
2019-02-12T21:16:55.169Z,24.00
2019-02-12T21:18:47.863Z,24.00
2019-02-12T21:19:47.734Z,24.00
2019-02-12T21:21:40.392Z,24.00
2019-02-12T21:22:40.278Z,24.00
2019-02-12T21:24:32.953Z,24.00
2019-02-12T21:25:32.824Z,24.00
2019-02-12T21:27:25.501Z,24.00
2019-02-12T21:28:25.398Z,24.00
2019-02-12T21:30:18.099Z,24.00
2019-02-12T21:31:17.984Z,24.00
2019-02-12T21:33:10.628Z,24.00
2019-02-12T21:34:10.521Z,24.00
2019-02-12T21:36:03.218Z,24.00
2019-02-12T21:37:03.180Z,24.00
2019-02-12T21:38:55.777Z,24.00
2019-02-12T21:39:55.727Z,24.00
2019-02-12T21:41:48.317Z,24.00
2019-02-12T21:42:48.290Z,24.00
2019-02-12T21:44:40.911Z,24.00
2019-02-12T21:45:40.778Z,24.00
2019-02-12T21:47:33.524Z,24.00
2019-02-12T21:48:33.368Z,24.00
2019-02-12T21:50:26.051Z,24.00
2019-02-12T21:51:25.905Z,24.00
2019-02-12T21:53:18.578Z,24.00
2019-02-12T21:54:18.464Z,24.00
2019-02-12T21:56:11.145Z,24.00
2019-02-12T21:57:11.012Z,24.00
2019-02-12T21:59:03.699Z,24.00
2019-02-12T22:00:03.580Z,24.00
2019-02-12T22:01:59.485Z,24.00
2019-02-12T22:02:56.121Z,24.00
2019-02-12T22:04:48.867Z,24.00
2019-02-12T22:05:48.729Z,24.00
2019-02-12T22:07:41.399Z,0.00
2019-02-12T22:08:41.282Z,0.00
2019-02-12T22:10:33.958Z,0.00
2019-02-12T22:11:33.832Z,0.00
2019-02-12T22:13:26.507Z,0.00
2019-02-12T22:14:26.381Z,0.00
2019-02-12T22:16:19.069Z,0.00
2019-02-12T22:17:18.942Z,0.00
2019-02-12T22:19:11.650Z,0.00
2019-02-12T22:20:11.516Z,0.00
2019-02-12T22:22:04.176Z,0.00
2019-02-12T22:23:04.065Z,0.00
2019-02-12T22:24:56.737Z,0.00
2019-02-12T22:25:56.607Z,0.00
2019-02-12T22:27:49.273Z,0.00
2019-02-12T22:28:49.154Z,0.00
2019-02-12T22:30:41.831Z,0.00
2019-02-12T22:31:41.705Z,0.00
2019-02-12T22:33:34.371Z,0.00
2019-02-12T22:34:34.250Z,0.00
2019-02-12T22:36:26.932Z,0.00
2019-02-12T22:37:26.802Z,0.00
2019-02-12T22:39:19.464Z,0.00
2019-02-12T22:40:19.347Z,0.00
2019-02-12T22:42:12.048Z,0.00
2019-02-12T22:43:11.919Z,0.00
2019-02-12T22:45:04.582Z,0.00
2019-02-12T22:46:04.463Z,0.00
2019-02-12T22:47:57.153Z,0.00
2019-02-12T22:48:57.022Z,0.00
2019-02-12T22:50:49.717Z,0.00
2019-02-12T22:51:49.586Z,0.00
2019-02-12T22:53:42.247Z,0.00
2019-02-12T22:54:42.139Z,0.00
2019-02-12T22:56:34.874Z,0.00
2019-02-12T22:57:34.692Z,0.00
2019-02-12T22:59:27.353Z,0.00
